createdAt,value
2019-05-12T00:00:21.338Z,11.04
2019-05-12T00:02:50.002Z,11.07
2019-05-12T00:05:18.867Z,11.18
2019-05-12T00:07:48.783Z,10.90
2019-05-12T00:10:20.612Z,11.02
2019-05-12T00:12:49.201Z,11.12
2019-05-12T00:15:19.144Z,10.89
2019-05-12T00:17:48.764Z,10.83
2019-05-12T00:20:18.255Z,10.99
2019-05-12T00:22:49.172Z,10.77
2019-05-12T00:25:18.497Z,10.85
2019-05-12T00:27:48.515Z,10.74
2019-05-12T00:30:34.077Z,10.82
2019-05-12T00:33:08.943Z,10.56
2019-05-12T00:35:38.077Z,10.48
2019-05-12T00:38:09.115Z,10.21
2019-05-12T00:40:39.305Z,10.17
2019-05-12T00:43:08.692Z,10.19
2019-05-12T00:45:38.725Z,9.95
2019-05-12T00:48:09.150Z,9.90
2019-05-12T00:50:38.568Z,10.09
2019-05-12T00:53:08.966Z,9.91
2019-05-12T00:55:38.430Z,10.08
2019-05-12T00:58:08.202Z,10.08
2019-05-12T01:00:40.537Z,9.94
2019-05-12T01:03:08.640Z,10.00
2019-05-12T01:05:38.320Z,10.02
2019-05-12T01:08:09.050Z,9.90
2019-05-12T01:10:39.047Z,9.74
2019-05-12T01:13:08.689Z,9.53
2019-05-12T01:15:37.912Z,9.23
2019-05-12T01:18:09.427Z,9.11
2019-05-12T01:20:38.890Z,9.12
2019-05-12T01:23:08.780Z,9.23
2019-05-12T01:25:39.531Z,9.46
2019-05-12T01:28:08.425Z,9.54
2019-05-12T01:30:39.113Z,9.41
2019-05-12T01:33:08.560Z,9.41
2019-05-12T01:35:38.733Z,9.36
2019-05-12T01:38:08.297Z,9.39
2019-05-12T01:40:39.365Z,9.51
2019-05-12T01:43:08.812Z,9.58
2019-05-12T01:45:38.184Z,9.57
2019-05-12T01:48:08.824Z,9.53
2019-05-12T01:50:38.555Z,9.59
2019-05-12T01:53:08.407Z,9.56
2019-05-12T01:55:38.566Z,9.57
2019-05-12T01:58:08.451Z,9.43
2019-05-12T02:00:38.858Z,9.38
2019-05-12T02:03:09.006Z,9.54
2019-05-12T02:05:39.834Z,9.62
2019-05-12T02:08:10.172Z,9.57
2019-05-12T02:10:39.098Z,9.55
2019-05-12T02:13:08.216Z,9.32
2019-05-12T02:15:38.315Z,9.27
2019-05-12T02:18:09.119Z,9.38
2019-05-12T02:20:38.138Z,9.51
2019-05-12T02:23:09.019Z,9.51
2019-05-12T02:25:38.251Z,9.48
2019-05-12T02:28:09.172Z,9.45
2019-05-12T02:30:41.732Z,9.46
2019-05-12T02:33:07.836Z,9.45
2019-05-12T02:35:36.601Z,9.27
2019-05-12T02:38:05.595Z,9.09
2019-05-12T02:40:35.090Z,9.17
2019-05-12T02:43:05.324Z,9.23
2019-05-12T02:45:35.483Z,9.18
2019-05-12T02:48:05.585Z,8.94
2019-05-12T02:50:37.535Z,8.79
2019-05-12T02:53:07.249Z,8.75
2019-05-12T02:55:36.368Z,8.73
2019-05-12T02:58:05.892Z,8.65
2019-05-12T03:00:36.696Z,8.61
2019-05-12T03:03:14.404Z,8.56
2019-05-12T03:05:44.240Z,8.64
2019-05-12T03:08:15.334Z,8.66
2019-05-12T03:10:45.999Z,8.62
2019-05-12T03:13:15.071Z,8.58
2019-05-12T03:15:44.613Z,8.67
2019-05-12T03:18:14.600Z,8.73
2019-05-12T03:20:45.464Z,8.80
2019-05-12T03:23:15.510Z,8.88
2019-05-12T03:25:45.626Z,8.96
2019-05-12T03:28:16.011Z,9.08
2019-05-12T03:30:48.372Z,9.03
2019-05-12T03:33:19.729Z,9.02
2019-05-12T03:35:52.194Z,9.05
2019-05-12T03:38:15.901Z,9.13
2019-05-12T03:40:45.328Z,9.18
2019-05-12T03:43:14.769Z,9.40
2019-05-12T03:45:45.318Z,9.78
2019-05-12T03:48:15.051Z,9.90
2019-05-12T03:50:46.085Z,10.00
2019-05-12T03:53:15.611Z,10.05
2019-05-12T03:55:46.841Z,10.21
2019-05-12T03:58:15.482Z,10.28
2019-05-12T04:00:44.856Z,10.26
2019-05-12T04:03:15.323Z,10.44
2019-05-12T04:05:45.270Z,10.35
2019-05-12T04:08:15.710Z,10.46
2019-05-12T04:10:45.585Z,10.47
2019-05-12T04:13:15.196Z,10.63
2019-05-12T04:15:45.381Z,10.68
2019-05-12T04:18:15.798Z,10.86
2019-05-12T04:20:45.355Z,11.00
2019-05-12T04:23:15.462Z,11.01
2019-05-12T04:25:52.088Z,11.06
2019-05-12T04:28:15.176Z,11.17
2019-05-12T04:30:44.700Z,11.43
2019-05-12T04:33:15.443Z,11.47
2019-05-12T04:35:45.106Z,11.47
2019-05-12T04:38:15.005Z,11.59
2019-05-12T04:40:45.010Z,11.64
2019-05-12T04:43:14.731Z,11.80
2019-05-12T04:45:45.123Z,12.09
2019-05-12T04:48:15.577Z,12.23
2019-05-12T04:50:45.249Z,12.40
2019-05-12T04:53:14.604Z,12.61
2019-05-12T04:55:44.534Z,12.63
2019-05-12T04:58:15.650Z,12.87
2019-05-12T05:00:44.854Z,13.06
2019-05-12T05:03:14.307Z,13.16
2019-05-12T05:05:44.459Z,13.31
2019-05-12T05:08:15.531Z,13.56
2019-05-12T05:10:44.430Z,13.72
2019-05-12T05:13:14.917Z,13.95
2019-05-12T05:15:44.548Z,14.20
2019-05-12T05:18:13.575Z,14.33
2019-05-12T05:20:43.796Z,14.48
2019-05-12T05:23:14.231Z,14.63
2019-05-12T05:25:43.521Z,14.81
2019-05-12T05:28:14.344Z,14.92
2019-05-12T05:30:44.080Z,15.10
2019-05-12T05:33:14.463Z,15.27
2019-05-12T05:35:43.544Z,15.33
2019-05-12T05:38:18.618Z,15.46
2019-05-12T05:40:43.563Z,15.45
2019-05-12T05:43:17.479Z,15.46
2019-05-12T05:45:43.858Z,15.63
2019-05-12T05:48:13.597Z,15.70
2019-05-12T05:50:44.836Z,15.82
2019-05-12T05:53:19.643Z,15.79
2019-05-12T05:55:50.399Z,15.98
2019-05-12T05:58:16.723Z,16.01
2019-05-12T06:00:45.302Z,16.16
2019-05-12T06:03:22.575Z,16.26
2019-05-12T06:05:44.287Z,16.21
2019-05-12T06:08:18.603Z,16.05
2019-05-12T06:10:43.742Z,16.11
2019-05-12T06:13:14.368Z,16.41
2019-05-12T06:15:43.348Z,16.60
2019-05-12T06:18:13.582Z,16.94
2019-05-12T06:20:43.717Z,17.16
2019-05-12T06:23:15.525Z,17.05
2019-05-12T06:25:51.385Z,17.19
2019-05-12T06:28:17.330Z,17.19
2019-05-12T06:30:49.846Z,17.37
2019-05-12T06:33:16.271Z,17.46
2019-05-12T06:35:45.439Z,17.72
2019-05-12T06:38:14.324Z,17.93
2019-05-12T06:40:45.402Z,17.92
2019-05-12T06:43:14.185Z,18.20
2019-05-12T06:45:45.538Z,18.35
2019-05-12T06:48:14.025Z,18.39
2019-05-12T06:50:44.173Z,18.63
2019-05-12T06:53:13.916Z,18.95
2019-05-12T06:55:43.332Z,19.18
2019-05-12T06:58:14.017Z,19.20
2019-05-12T07:00:43.753Z,19.45
2019-05-12T07:03:14.334Z,19.73
2019-05-12T07:05:45.206Z,20.07
2019-05-12T07:08:20.009Z,20.60
2019-05-12T07:10:46.930Z,20.72
2019-05-12T07:13:22.494Z,20.89
2019-05-12T07:15:44.190Z,20.87
2019-05-12T07:18:17.250Z,20.77
2019-05-12T07:20:44.720Z,20.76
2019-05-12T07:23:14.300Z,21.09
2019-05-12T07:25:44.495Z,21.20
2019-05-12T07:28:14.445Z,21.11
2019-05-12T07:30:44.198Z,21.47
2019-05-12T07:33:14.644Z,21.73
2019-05-12T07:35:44.541Z,22.11
2019-05-12T07:38:20.957Z,22.63
2019-05-12T07:40:46.972Z,23.43
2019-05-12T07:43:20.490Z,23.43
2019-05-12T07:45:56.686Z,24.68
2019-05-12T07:48:19.917Z,25.21
2019-05-12T07:50:50.236Z,26.36
2019-05-12T07:53:18.762Z,26.78
2019-05-12T07:55:49.425Z,27.17
2019-05-12T07:58:19.300Z,27.55
2019-05-12T08:00:48.176Z,27.80
2019-05-12T08:03:21.221Z,27.92
2019-05-12T08:05:51.310Z,27.69
2019-05-12T08:08:17.331Z,28.94
2019-05-12T08:10:51.382Z,28.73
2019-05-12T08:13:19.060Z,28.02
2019-05-12T08:15:51.285Z,28.61
2019-05-12T08:18:18.037Z,28.24
2019-05-12T08:20:46.582Z,28.80
2019-05-12T08:23:15.230Z,30.43
2019-05-12T08:25:43.926Z,28.81
2019-05-12T08:28:18.790Z,29.25
2019-05-12T08:30:47.550Z,28.10
2019-05-12T08:33:14.679Z,27.83
2019-05-12T08:35:44.008Z,27.77
2019-05-12T08:38:14.455Z,28.42
2019-05-12T08:40:48.816Z,28.51
2019-05-12T08:43:14.868Z,27.69
2019-05-12T08:45:44.420Z,28.20
2019-05-12T08:48:21.535Z,28.32
2019-05-12T08:50:46.041Z,27.95
2019-05-12T08:53:20.322Z,26.77
2019-05-12T08:55:44.154Z,27.12
2019-05-12T08:58:29.737Z,27.27
2019-05-12T09:00:50.066Z,27.47
2019-05-12T09:03:14.143Z,27.56
2019-05-12T09:05:44.605Z,27.76
2019-05-12T09:08:16.592Z,28.32
2019-05-12T09:10:45.299Z,28.51
2019-05-12T09:13:14.498Z,28.56
2019-05-12T09:15:43.838Z,29.32
2019-05-12T09:18:14.434Z,29.16
2019-05-12T09:20:48.720Z,29.25
2019-05-12T09:23:13.729Z,29.91
2019-05-12T09:25:45.280Z,28.61
2019-05-12T09:28:13.769Z,28.64
2019-05-12T09:30:47.635Z,28.22
2019-05-12T09:33:14.058Z,28.06
2019-05-12T09:35:43.724Z,29.04
2019-05-12T09:38:21.200Z,30.30
2019-05-12T09:40:43.720Z,28.91
2019-05-12T09:43:13.775Z,28.36
2019-05-12T09:45:51.570Z,29.09
2019-05-12T09:48:15.841Z,28.23
2019-05-12T09:50:46.522Z,28.27
2019-05-12T09:53:14.809Z,28.65
2019-05-12T09:55:46.379Z,28.30
2019-05-12T09:58:23.078Z,27.82
2019-05-12T10:00:45.412Z,28.71
2019-05-12T10:03:14.110Z,28.02
2019-05-12T10:05:44.233Z,28.06
2019-05-12T10:08:13.882Z,28.60
2019-05-12T10:10:46.798Z,29.04
2019-05-12T10:13:14.789Z,30.10
2019-05-12T10:15:43.510Z,29.73
2019-05-12T10:18:14.388Z,30.32
2019-05-12T10:20:44.145Z,31.23
2019-05-12T10:23:16.547Z,30.85
2019-05-12T10:25:44.657Z,31.34
2019-05-12T10:28:16.095Z,31.45
2019-05-12T10:30:47.046Z,31.13
2019-05-12T10:33:14.101Z,32.10
2019-05-12T10:35:43.854Z,30.79
2019-05-12T10:38:13.768Z,31.10
2019-05-12T10:40:44.513Z,31.67
2019-05-12T10:43:12.968Z,31.30
2019-05-12T10:45:44.039Z,31.60
2019-05-12T10:48:13.946Z,30.98
2019-05-12T10:50:44.114Z,31.24
2019-05-12T10:53:15.560Z,32.41
2019-05-12T10:55:44.077Z,32.74
2019-05-12T10:58:14.521Z,32.52
2019-05-12T11:00:44.344Z,32.90
2019-05-12T11:03:15.454Z,32.69
2019-05-12T11:05:44.145Z,33.60
2019-05-12T11:08:14.298Z,33.79
2019-05-12T11:10:43.100Z,34.19
2019-05-12T11:13:14.018Z,32.65
2019-05-12T11:15:46.227Z,32.17
2019-05-12T11:18:13.616Z,31.40
2019-05-12T11:20:42.250Z,30.14
2019-05-12T11:23:10.934Z,29.37
2019-05-12T11:25:39.580Z,29.13
2019-05-12T11:28:08.322Z,29.88
2019-05-12T11:30:37.071Z,28.88
2019-05-12T11:33:05.719Z,29.05
2019-05-12T11:35:34.825Z,29.31
2019-05-12T11:38:04.466Z,29.82
2019-05-12T11:40:36.141Z,30.38
2019-05-12T11:43:06.301Z,30.26
2019-05-12T11:45:34.986Z,30.28
2019-05-12T11:48:09.911Z,31.65
2019-05-12T11:50:34.572Z,32.93
2019-05-12T11:53:04.214Z,32.09
2019-05-12T11:55:34.941Z,31.48
2019-05-12T11:58:06.836Z,31.43
2019-05-12T12:00:35.874Z,31.99
2019-05-12T12:03:12.722Z,31.78
2019-05-12T12:05:38.127Z,32.50
2019-05-12T12:08:05.570Z,32.62
2019-05-12T12:10:37.583Z,31.38
2019-05-12T12:13:04.504Z,31.35
2019-05-12T12:15:34.519Z,30.97
2019-05-12T12:18:12.727Z,29.32
2019-05-12T12:20:33.981Z,28.95
2019-05-12T12:23:06.560Z,29.00
2019-05-12T12:25:34.263Z,29.46
2019-05-12T12:28:04.381Z,30.45
2019-05-12T12:30:34.120Z,29.87
2019-05-12T12:33:04.127Z,29.33
2019-05-12T12:35:34.513Z,29.47
2019-05-12T12:38:06.193Z,29.49
2019-05-12T12:40:34.832Z,30.32
2019-05-12T12:43:03.976Z,31.67
2019-05-12T12:45:40.703Z,33.30
2019-05-12T12:48:09.394Z,32.62
2019-05-12T12:50:37.878Z,33.07
2019-05-12T12:53:06.530Z,33.29
2019-05-12T12:55:37.956Z,31.28
2019-05-12T12:58:05.641Z,31.44
2019-05-12T13:00:46.838Z,32.35
2019-05-12T13:03:04.664Z,31.97
2019-05-12T13:05:34.540Z,30.43
2019-05-12T13:08:04.288Z,30.08
2019-05-12T13:10:33.713Z,29.11
2019-05-12T13:13:04.136Z,28.05
2019-05-12T13:15:34.047Z,29.57
2019-05-12T13:18:02.866Z,31.50
2019-05-12T13:20:31.457Z,32.72
2019-05-12T13:22:59.930Z,33.30
2019-05-12T13:25:28.583Z,33.32
2019-05-12T13:28:01.457Z,31.04
2019-05-12T13:30:27.519Z,29.70
2019-05-12T13:32:56.112Z,30.27
2019-05-12T13:35:24.800Z,29.91
2019-05-12T13:37:58.435Z,28.60
2019-05-12T13:40:23.605Z,28.21
2019-05-12T13:42:54.312Z,27.89
2019-05-12T13:45:24.268Z,27.29
2019-05-12T13:47:53.528Z,27.09
2019-05-12T13:50:26.272Z,27.41
2019-05-12T13:52:54.208Z,28.10
2019-05-12T13:55:25.609Z,29.78
2019-05-12T13:57:57.781Z,30.15
2019-05-12T14:00:24.553Z,30.93
2019-05-12T14:02:57.162Z,31.37
2019-05-12T14:05:24.140Z,31.40
2019-05-12T14:07:55.432Z,31.11
2019-05-12T14:10:24.581Z,31.75
2019-05-12T14:12:54.350Z,30.96
2019-05-12T14:15:24.852Z,30.94
2019-05-12T14:17:54.267Z,30.25
2019-05-12T14:20:23.931Z,30.68
2019-05-12T14:22:53.773Z,31.29
2019-05-12T14:25:29.936Z,31.22
2019-05-12T14:27:53.708Z,29.65
2019-05-12T14:30:24.490Z,28.82
2019-05-12T14:32:55.053Z,28.77
2019-05-12T14:35:26.163Z,27.46
2019-05-12T14:37:54.649Z,26.63
2019-05-12T14:40:29.873Z,25.86
2019-05-12T14:42:54.410Z,25.74
2019-05-12T14:45:29.906Z,25.90
2019-05-12T14:47:59.912Z,26.25
2019-05-12T14:50:26.839Z,27.35
2019-05-12T14:52:59.845Z,28.49
2019-05-12T14:55:28.441Z,28.26
2019-05-12T14:57:56.954Z,27.33
2019-05-12T15:00:25.595Z,26.75
2019-05-12T15:02:54.163Z,26.26
2019-05-12T15:05:28.286Z,25.83
2019-05-12T15:08:00.203Z,25.21
2019-05-12T15:10:27.232Z,24.35
2019-05-12T15:12:56.013Z,24.29
2019-05-12T15:15:24.577Z,24.17
2019-05-12T15:17:56.770Z,23.84
2019-05-12T15:20:24.058Z,24.02
2019-05-12T15:22:54.966Z,23.90
2019-05-12T15:25:23.062Z,23.71
2019-05-12T15:27:51.634Z,23.55
2019-05-12T15:30:24.439Z,23.19
2019-05-12T15:32:50.583Z,22.81
2019-05-12T15:35:19.147Z,22.51
2019-05-12T15:37:47.763Z,22.44
2019-05-12T15:40:16.400Z,22.11
2019-05-12T15:42:46.138Z,22.05
2019-05-12T15:45:16.840Z,22.03
2019-05-12T15:47:45.164Z,21.94
2019-05-12T15:50:14.941Z,21.91
2019-05-12T15:52:45.640Z,22.00
2019-05-12T15:55:17.797Z,22.02
2019-05-12T15:57:44.875Z,22.03
2019-05-12T16:00:16.760Z,22.18
2019-05-12T16:02:44.489Z,22.25
2019-05-12T16:05:14.598Z,22.21
2019-05-12T16:07:47.724Z,22.18
2019-05-12T16:10:16.612Z,22.05
2019-05-12T16:12:45.252Z,22.03
2019-05-12T16:15:19.230Z,22.04
2019-05-12T16:17:44.515Z,22.10
2019-05-12T16:20:14.408Z,21.95
2019-05-12T16:22:45.244Z,21.86
2019-05-12T16:25:15.187Z,21.77
2019-05-12T16:27:44.803Z,21.68
2019-05-12T16:30:14.063Z,21.65
2019-05-12T16:32:47.646Z,21.61
2019-05-12T16:35:14.534Z,21.44
2019-05-12T16:37:44.217Z,21.41
2019-05-12T16:40:14.087Z,21.35
2019-05-12T16:42:48.101Z,21.31
2019-05-12T16:45:19.849Z,21.19
2019-05-12T16:47:46.994Z,21.04
2019-05-12T16:50:24.040Z,20.95
2019-05-12T16:52:46.155Z,20.87
2019-05-12T16:55:14.802Z,20.83
2019-05-12T16:57:51.271Z,20.76
2019-05-12T17:00:14.845Z,20.75
2019-05-12T17:02:52.151Z,20.69
2019-05-12T17:05:19.776Z,20.67
2019-05-12T17:07:44.926Z,20.67
2019-05-12T17:10:16.548Z,20.54
2019-05-12T17:12:44.073Z,20.79
2019-05-12T17:15:14.945Z,20.79
2019-05-12T17:17:44.753Z,20.59
2019-05-12T17:20:13.979Z,20.53
2019-05-12T17:22:45.694Z,20.49
2019-05-12T17:25:15.188Z,20.31
2019-05-12T17:27:44.869Z,20.27
2019-05-12T17:30:16.824Z,20.28
2019-05-12T17:32:58.170Z,20.25
2019-05-12T17:35:20.346Z,20.24
2019-05-12T17:37:46.374Z,20.21
2019-05-12T17:40:19.886Z,20.14
2019-05-12T17:42:45.796Z,20.18
2019-05-12T17:45:20.128Z,20.01
2019-05-12T17:47:45.088Z,19.89
2019-05-12T17:50:14.080Z,19.78
2019-05-12T17:52:45.030Z,19.64
2019-05-12T17:55:15.898Z,19.53
2019-05-12T17:57:44.563Z,19.45
2019-05-12T18:00:15.108Z,19.33
2019-05-12T18:02:44.237Z,19.33
2019-05-12T18:05:15.557Z,19.19
2019-05-12T18:07:50.841Z,19.13
2019-05-12T18:10:17.883Z,19.00
2019-05-12T18:12:46.521Z,18.94
2019-05-12T18:15:16.485Z,18.88
2019-05-12T18:17:49.786Z,18.73
2019-05-12T18:20:16.301Z,18.71
2019-05-12T18:22:46.965Z,18.73
2019-05-12T18:25:21.962Z,18.82
2019-05-12T18:27:50.803Z,18.67
2019-05-12T18:30:19.360Z,18.57
2019-05-12T18:32:48.124Z,18.52
2019-05-12T18:35:16.776Z,18.57
2019-05-12T18:37:45.277Z,18.53
2019-05-12T18:40:14.983Z,18.35
2019-05-12T18:42:43.510Z,18.34
2019-05-12T18:45:17.993Z,18.31
2019-05-12T18:47:44.659Z,18.26
2019-05-12T18:50:14.091Z,18.18
2019-05-12T18:52:46.195Z,18.13
2019-05-12T18:55:13.459Z,18.15
2019-05-12T18:57:47.973Z,18.18
2019-05-12T19:00:18.712Z,18.10
2019-05-12T19:02:50.807Z,18.09
2019-05-12T19:05:21.902Z,18.07
2019-05-12T19:07:48.434Z,17.97
2019-05-12T19:10:17.092Z,18.03
2019-05-12T19:12:45.789Z,17.97
2019-05-12T19:15:19.523Z,17.90
2019-05-12T19:17:45.971Z,17.93
2019-05-12T19:20:15.120Z,17.95
2019-05-12T19:22:56.082Z,17.91
2019-05-12T19:25:19.598Z,17.81
2019-05-12T19:27:55.167Z,17.65
2019-05-12T19:30:25.306Z,17.52
2019-05-12T19:32:54.572Z,17.21
2019-05-12T19:35:23.488Z,17.03
2019-05-12T19:37:53.819Z,17.00
2019-05-12T19:40:22.745Z,17.00
2019-05-12T19:42:53.688Z,16.75
2019-05-12T19:45:22.538Z,16.75
2019-05-12T19:47:53.581Z,16.70
2019-05-12T19:50:22.414Z,16.65
2019-05-12T19:52:50.959Z,16.53
2019-05-12T19:55:20.288Z,16.43
2019-05-12T19:57:50.180Z,16.22
2019-05-12T20:00:19.078Z,16.25
2019-05-12T20:02:47.722Z,16.14
2019-05-12T20:05:17.638Z,15.92
2019-05-12T20:07:46.512Z,15.86
2019-05-12T20:10:16.548Z,15.83
2019-05-12T20:12:48.736Z,15.70
2019-05-12T20:15:15.678Z,15.64
2019-05-12T20:17:45.131Z,15.67
2019-05-12T20:20:17.714Z,15.62
2019-05-12T20:22:45.305Z,15.47
2019-05-12T20:25:14.725Z,15.49
2019-05-12T20:27:44.674Z,15.37
2019-05-12T20:30:18.896Z,15.26
2019-05-12T20:32:44.097Z,15.16
2019-05-12T20:35:14.594Z,15.06
2019-05-12T20:37:52.417Z,15.12
2019-05-12T20:40:14.197Z,14.98
2019-05-12T20:43:05.333Z,14.99
2019-05-12T20:45:13.924Z,14.97
2019-05-12T20:47:45.202Z,14.93
2019-05-12T20:50:14.671Z,14.81
2019-05-12T20:52:52.261Z,14.77
2019-05-12T20:55:16.987Z,14.71
2019-05-12T20:57:56.621Z,14.71
2019-05-12T21:00:15.957Z,14.68
2019-05-12T21:02:44.646Z,14.61
2019-05-12T21:05:17.585Z,14.44
2019-05-12T21:07:44.065Z,14.45
2019-05-12T21:10:14.890Z,14.36
2019-05-12T21:12:46.248Z,14.33
2019-05-12T21:15:20.365Z,14.36
2019-05-12T21:17:52.109Z,14.37
2019-05-12T21:20:16.778Z,14.42
2019-05-12T21:22:45.653Z,14.42
2019-05-12T21:25:14.297Z,14.36
2019-05-12T21:27:47.303Z,14.31
2019-05-12T21:30:15.183Z,14.26
2019-05-12T21:32:47.081Z,14.18
2019-05-12T21:35:21.892Z,14.15
2019-05-12T21:37:46.313Z,14.15
2019-05-12T21:40:15.253Z,14.16
2019-05-12T21:42:44.617Z,14.17
2019-05-12T21:45:14.565Z,14.11
2019-05-12T21:47:44.527Z,14.02
2019-05-12T21:50:14.103Z,13.99
2019-05-12T21:52:44.524Z,13.92
2019-05-12T21:55:21.320Z,13.85
2019-05-12T21:57:44.013Z,13.80
2019-05-12T22:00:34.717Z,13.68
2019-05-12T22:03:08.149Z,13.56
2019-05-12T22:05:47.989Z,13.48
2019-05-12T22:08:06.399Z,13.41
2019-05-12T22:10:35.571Z,13.39
2019-05-12T22:13:07.358Z,13.27
2019-05-12T22:15:36.093Z,13.23
2019-05-12T22:18:05.236Z,13.22
2019-05-12T22:20:35.788Z,13.14
2019-05-12T22:23:10.126Z,13.15
2019-05-12T22:25:35.396Z,13.12
2019-05-12T22:28:09.734Z,13.09
2019-05-12T22:30:35.145Z,13.07
2019-05-12T22:33:09.197Z,13.00
2019-05-12T22:35:34.425Z,12.96
2019-05-12T22:38:09.405Z,12.94
2019-05-12T22:40:33.357Z,12.97
2019-05-12T22:43:04.494Z,12.92
2019-05-12T22:45:37.797Z,12.89
2019-05-12T22:48:04.114Z,12.90
2019-05-12T22:50:35.183Z,12.90
2019-05-12T22:53:04.418Z,12.88
2019-05-12T22:55:35.961Z,12.87
2019-05-12T22:58:04.469Z,12.81
2019-05-12T23:00:34.332Z,12.79
2019-05-12T23:03:07.145Z,12.74
2019-05-12T23:05:33.525Z,12.66
2019-05-12T23:08:06.294Z,12.60
2019-05-12T23:10:32.644Z,12.56
2019-05-12T23:13:02.293Z,12.48
2019-05-12T23:15:33.541Z,12.43
2019-05-12T23:18:04.008Z,12.37
2019-05-12T23:20:33.354Z,12.32
2019-05-12T23:23:03.914Z,12.27
2019-05-12T23:25:33.642Z,12.22
2019-05-12T23:28:06.750Z,12.13
2019-05-12T23:30:32.936Z,12.12
2019-05-12T23:33:03.789Z,12.11
2019-05-12T23:35:34.838Z,12.04
2019-05-12T23:38:04.483Z,12.03
2019-05-12T23:40:34.538Z,11.99
2019-05-12T23:43:04.101Z,11.94
2019-05-12T23:45:33.899Z,11.86
2019-05-12T23:48:03.741Z,11.79
2019-05-12T23:50:32.899Z,11.74
2019-05-12T23:53:03.683Z,11.79
2019-05-12T23:55:35.013Z,11.67
2019-05-12T23:58:04.289Z,11.65
